1987 OGDEN (1987325N13126)


On this page: IBTrACS data - Map and Plots - Positions - Intensities - Original source data

Summary

Start Nov 20
End Nov 25
Basin WP
LMI 45 kt
Sources jtwc_wp
cma
hko
td9636
In WMO? No
Previous storm 1987 NINA (WP)
Previous in basin 1987 NINA (WP)
Concurrent storms 1987 NINA (WP)
1987 OGDEN (WP)
1988 HSK0288 (SI)
Next in basin Missing
Next storm 1988 HSK0288 (SI)

top of page IBTrACS Data: File Access

top of page HURSAT Data: File Access

Image of storm

top of page Plots:

Map of storm track will not appear if FTP is down
Time series of cyclone Maximum Sustained Wind will not appear if FTP is down
Time series of cyclone Minimum Central Pressure will not appear if FTP is down

top of page Track Data:Position

jtwc_wp cma hko td9636
Date Lat Lon Lat Lon Lat Lon Lat Lon
1987-11-20 18:00:00 13.2 126.3 13.2 126.3
1987-11-21 00:00:00 13.1 124.8 13.1 124.8
1987-11-21 06:00:00 12.7 123.4 12.7 123.4
1987-11-21 12:00:00 12.3 122.1 12.3 122.1
1987-11-21 18:00:00 12.1 120.8 12.1 120.8
1987-11-22 00:00:00 12.0 119.5 12.0 119.5
1987-11-22 06:00:00 11.8 118.4 11.8 118.4
1987-11-22 12:00:00 11.6 117.4 11.6 117.4
1987-11-22 18:00:00 11.4 116.4 11.6 115.5 11.4 116.4
1987-11-23 00:00:00 11.2 115.4 11.7 114.9 11.2 115.4
1987-11-23 06:00:00 11.1 114.4 11.9 114.2 11.2 114.5
1987-11-23 12:00:00 11.3 113.6 12.0 113.5 11.3 113.6
1987-11-23 18:00:00 11.5 112.8 12.0 112.8 11.5 112.8
1987-11-24 00:00:00 11.7 112.0 12.0 112.2 12.0 111.7 11.7 112.0
1987-11-24 06:00:00 12.0 111.3 12.1 111.5 12.2 111.1 11.9 111.2
1987-11-24 12:00:00 12.3 110.4 12.2 110.4 12.3 110.6 12.3 110.4
1987-11-24 18:00:00 12.7 109.4 12.3 108.8 12.3 110.1 12.9 109.5
1987-11-25 00:00:00 13.5 108.5 12.4 109.6 13.5 108.5
1987-11-25 06:00:00 14.1 107.7 12.4 109.1 14.1 107.6
1987-11-25 12:00:00 14.7 106.8 14.7 106.8

top of pageTrack Data:Intensity

jtwc_wp cma hko td9636
Date Wind Pres Wind Pres Wind Pres Wind Pres
1987-11-20 18:00:00 20. 20.
1987-11-21 00:00:00 25. 25.
1987-11-21 06:00:00 20. 25.
1987-11-21 12:00:00 20. 20.
1987-11-21 18:00:00 20. 20.
1987-11-22 00:00:00 20. 20.
1987-11-22 06:00:00 20. 20.
1987-11-22 12:00:00 20. 20.
1987-11-22 18:00:00 20. 23. 1007. 20.
1987-11-23 00:00:00 20. 23. 1006. 20.
1987-11-23 06:00:00 20. 29. 1006. 20.
1987-11-23 12:00:00 25. 29. 1004. 25.
1987-11-23 18:00:00 30. 39. 1000. 25.
1987-11-24 00:00:00 30. 39. 1000. 25. 1002. 30.
1987-11-24 06:00:00 35. 39. 1002. 30. 999. 30.
1987-11-24 12:00:00 40. 29. 1002. 30. 999. 40.
1987-11-24 18:00:00 45. 23. 1002. 30. 998. 40.
1987-11-25 00:00:00 35. 25. 1000. 35.
1987-11-25 06:00:00 25. 25. 1003. 35.
1987-11-25 12:00:00 15. 15.

top of page Links to source data

Source Source file Format
jtwc_wp bwp241987.txt ATCF
cma CH1987BST.txt:Storm=26:Ogden CMA text table
hko tc-besttrack-data-current.txt:Line=19210:OGDEN HKO Text table
td9636 cons_worldwide_trop_cyclone_18710101-19891231-003:Line=31244 TD 9636